sensor_id;sensor_type;location;lat;lon;timestamp;pressure;altitude;pressure_sealevel;temperature;humidity
73651;BME280;61944;52.538;6.108;2023-06-24T00:02:08;102303.81;;;19.89;83.61
73651;BME280;61944;52.538;6.108;2023-06-24T00:04:34;102298.13;;;19.85;83.66
73651;BME280;61944;52.538;6.108;2023-06-24T00:07:00;102303.81;;;19.89;83.03
73651;BME280;61944;52.538;6.108;2023-06-24T00:09:26;102301.38;;;19.87;82.95
73651;BME280;61944;52.538;6.108;2023-06-24T00:11:53;102294.06;;;19.83;83.94
73651;BME280;61944;52.538;6.108;2023-06-24T00:14:20;102296.91;;;19.61;85.92
73651;BME280;61944;52.538;6.108;2023-06-24T00:16:46;102292.84;;;19.52;86.39
73651;BME280;61944;52.538;6.108;2023-06-24T00:19:19;102294.88;;;19.62;85.39
73651;BME280;61944;52.538;6.108;2023-06-24T00:21:45;102302.56;;;19.58;85.38
73651;BME280;61944;52.538;6.108;2023-06-24T00:24:11;102306.22;;;19.69;83.70
73651;BME280;61944;52.538;6.108;2023-06-24T00:26:36;102305.44;;;19.61;84.85
73651;BME280;61944;52.538;6.108;2023-06-24T00:29:02;102306.66;;;19.57;85.03
73651;BME280;61944;52.538;6.108;2023-06-24T00:31:27;102299.72;;;19.54;85.41
73651;BME280;61944;52.538;6.108;2023-06-24T00:33:53;102305.44;;;19.61;84.39
73651;BME280;61944;52.538;6.108;2023-06-24T00:36:18;102303.41;;;19.44;85.65
73651;BME280;61944;52.538;6.108;2023-06-24T00:38:44;102307.06;;;19.55;85.01
73651;BME280;61944;52.538;6.108;2023-06-24T00:41:09;102306.63;;;19.39;86.32
73651;BME280;61944;52.538;6.108;2023-06-24T00:43:35;102305.03;;;19.48;84.89
73651;BME280;61944;52.538;6.108;2023-06-24T00:46:01;102299.75;;;19.40;86.33
73651;BME280;61944;52.538;6.108;2023-06-24T00:48:27;102301.34;;;19.37;86.71
73651;BME280;61944;52.538;6.108;2023-06-24T00:50:52;102300.16;;;19.38;86.79
73651;BME280;61944;52.538;6.108;2023-06-24T00:53:19;102307.47;;;19.36;86.15
73651;BME280;61944;52.538;6.108;2023-06-24T00:55:46;102312.72;;;19.37;86.30
73651;BME280;61944;52.538;6.108;2023-06-24T00:58:13;102311.09;;;19.36;86.37
73651;BME280;61944;52.538;6.108;2023-06-24T01:00:45;102310.28;;;19.36;86.10
73651;BME280;61944;52.538;6.108;2023-06-24T01:03:11;102319.22;;;19.34;86.35
73651;BME280;61944;52.538;6.108;2023-06-24T01:05:43;102309.47;;;19.42;84.79
73651;BME280;61944;52.538;6.108;2023-06-24T01:08:09;102306.22;;;19.37;85.91
73651;BME280;61944;52.538;6.108;2023-06-24T01:10:41;102310.28;;;19.25;86.50
73651;BME280;61944;52.538;6.108;2023-06-24T01:13:07;102303.78;;;19.24;86.52
73651;BME280;61944;52.538;6.108;2023-06-24T01:15:32;102303.41;;;19.29;85.54
73651;BME280;61944;52.538;6.108;2023-06-24T01:18:11;102293.25;;;19.25;86.62
73651;BME280;61944;52.538;6.108;2023-06-24T01:20:47;102298.91;;;19.21;86.05
73651;BME280;61944;52.538;6.108;2023-06-24T01:23:24;102294.88;;;19.26;86.43
73651;BME280;61944;52.538;6.108;2023-06-24T01:26:08;102291.63;;;19.24;87.09
73651;BME280;61944;52.538;6.108;2023-06-24T01:29:02;102305.41;;;19.15;87.75
73651;BME280;61944;52.538;6.108;2023-06-24T01:36:45;102289.97;;;19.16;87.31
73651;BME280;61944;52.538;6.108;2023-06-24T01:39:13;102288.34;;;19.11;87.26
73651;BME280;61944;52.538;6.108;2023-06-24T01:41:47;102282.28;;;19.16;86.82
73651;BME280;61944;52.538;6.108;2023-06-24T01:44:16;102280.66;;;19.15;86.68
73651;BME280;61944;52.538;6.108;2023-06-24T01:46:46;102286.72;;;19.14;87.08
73651;BME280;61944;52.538;6.108;2023-06-24T01:49:13;102287.53;;;19.14;86.65
73651;BME280;61944;52.538;6.108;2023-06-24T01:51:41;102283.91;;;19.06;87.58
73651;BME280;61944;52.538;6.108;2023-06-24T01:54:11;102284.28;;;19.05;87.48
73651;BME280;61944;52.538;6.108;2023-06-24T01:56:39;102283.47;;;19.01;88.54
73651;BME280;61944;52.538;6.108;2023-06-24T01:59:07;102280.66;;;19.04;87.10
73651;BME280;61944;52.538;6.108;2023-06-24T02:01:35;102284.28;;;19.05;87.19
73651;BME280;61944;52.538;6.108;2023-06-24T02:04:02;102274.53;;;18.95;88.35
73651;BME280;61944;52.538;6.108;2023-06-24T02:06:28;102273.75;;;18.91;89.57
73651;BME280;61944;52.538;6.108;2023-06-24T02:08:56;102272.50;;;18.88;88.76
73651;BME280;61944;52.538;6.108;2023-06-24T02:11:24;102276.97;;;18.89;88.61
73651;BME280;61944;52.538;6.108;2023-06-24T02:13:50;102279.81;;;18.97;88.21
73651;BME280;61944;52.538;6.108;2023-06-24T02:16:17;102272.50;;;18.81;91.00
73651;BME280;61944;52.538;6.108;2023-06-24T02:18:44;102278.59;;;18.91;88.68
73651;BME280;61944;52.538;6.108;2023-06-24T02:21:10;102268.03;;;18.84;88.44
73651;BME280;61944;52.538;6.108;2023-06-24T02:23:37;102264.03;;;18.96;87.50
73651;BME280;61944;52.538;6.108;2023-06-24T02:26:04;102271.31;;;18.89;88.28
73651;BME280;61944;52.538;6.108;2023-06-24T02:28:32;102273.72;;;18.95;89.47
73651;BME280;61944;52.538;6.108;2023-06-24T02:30:58;102267.22;;;18.83;89.68
73651;BME280;61944;52.538;6.108;2023-06-24T02:33:24;102266.41;;;18.79;89.63
73651;BME280;61944;52.538;6.108;2023-06-24T02:35:50;102263.53;;;18.76;89.35
73651;BME280;61944;52.538;6.108;2023-06-24T02:38:15;102268.78;;;18.74;90.33
73651;BME280;61944;52.538;6.108;2023-06-24T02:40:43;102265.56;;;18.75;89.80
73651;BME280;61944;52.538;6.108;2023-06-24T02:43:10;102260.75;;;18.79;89.73
73651;BME280;61944;52.538;6.108;2023-06-24T02:45:35;102261.91;;;18.75;90.80
73651;BME280;61944;52.538;6.108;2023-06-24T02:48:01;102261.50;;;18.76;89.42
73651;BME280;61944;52.538;6.108;2023-06-24T02:50:28;102267.16;;;18.76;90.37
73651;BME280;61944;52.538;6.108;2023-06-24T02:52:53;102259.88;;;18.75;88.82
73651;BME280;61944;52.538;6.108;2023-06-24T02:55:19;102264.75;;;18.71;90.14
73651;BME280;61944;52.538;6.108;2023-06-24T02:57:46;102263.06;;;18.59;91.78
73651;BME280;61944;52.538;6.108;2023-06-24T03:00:13;102262.66;;;18.54;91.56
73651;BME280;61944;52.538;6.108;2023-06-24T03:02:43;102263.91;;;18.60;91.17
73651;BME280;61944;52.538;6.108;2023-06-24T03:05:10;102259.84;;;18.61;90.55
73651;BME280;61944;52.538;6.108;2023-06-24T03:07:37;102259.81;;;18.57;91.32
73651;BME280;61944;52.538;6.108;2023-06-24T03:10:04;102248.88;;;18.52;93.08
73651;BME280;61944;52.538;6.108;2023-06-24T03:12:31;102254.16;;;18.61;90.90
73651;BME280;61944;52.538;6.108;2023-06-24T03:14:56;102242.78;;;18.46;92.38
73651;BME280;61944;52.538;6.108;2023-06-24T03:17:22;102252.50;;;18.45;92.08
73651;BME280;61944;52.538;6.108;2023-06-24T03:19:47;102264.28;;;18.55;91.59
73651;BME280;61944;52.538;6.108;2023-06-24T03:22:13;102261.44;;;18.51;92.35
73651;BME280;61944;52.538;6.108;2023-06-24T03:24:38;102261.38;;;18.40;92.35
73651;BME280;61944;52.538;6.108;2023-06-24T03:27:03;102266.28;;;18.47;90.67
73651;BME280;61944;52.538;6.108;2023-06-24T03:29:29;102273.13;;;18.42;92.53
73651;BME280;61944;52.538;6.108;2023-06-24T03:31:54;102276.00;;;18.49;91.16
73651;BME280;61944;52.538;6.108;2023-06-24T03:34:20;102277.59;;;18.43;92.39
73651;BME280;61944;52.538;6.108;2023-06-24T03:36:45;102270.34;;;18.49;91.23
73651;BME280;61944;52.538;6.108;2023-06-24T03:39:11;102271.91;;;18.40;92.53
73651;BME280;61944;52.538;6.108;2023-06-24T03:41:36;102274.34;;;18.41;91.64
73651;BME280;61944;52.538;6.108;2023-06-24T03:44:02;102277.16;;;18.38;92.00
73651;BME280;61944;52.538;6.108;2023-06-24T03:46:27;102274.78;;;18.43;91.43
73651;BME280;61944;52.538;6.108;2023-06-24T03:48:57;102275.09;;;18.27;93.23
73651;BME280;61944;52.538;6.108;2023-06-24T03:51:23;102275.53;;;18.33;91.78
73651;BME280;61944;52.538;6.108;2023-06-24T03:53:48;102262.16;;;18.30;92.31
73651;BME280;61944;52.538;6.108;2023-06-24T03:56:14;102260.53;;;18.29;92.44
73651;BME280;61944;52.538;6.108;2023-06-24T03:58:40;102261.38;;;18.40;91.97
73651;BME280;61944;52.538;6.108;2023-06-24T04:01:05;102260.56;;;18.36;93.29
73651;BME280;61944;52.538;6.108;2023-06-24T04:03:31;102263.84;;;18.45;90.28
73651;BME280;61944;52.538;6.108;2023-06-24T04:05:57;102273.53;;;18.44;92.39
73651;BME280;61944;52.538;6.108;2023-06-24T04:08:22;102265.84;;;18.41;94.29
73651;BME280;61944;52.538;6.108;2023-06-24T04:10:50;102273.13;;;18.35;94.05
73651;BME280;61944;52.538;6.108;2023-06-24T04:13:16;102258.13;;;18.35;93.26
73651;BME280;61944;52.538;6.108;2023-06-24T04:15:41;102267.84;;;18.37;93.63
73651;BME280;61944;52.538;6.108;2023-06-24T04:18:08;102273.53;;;18.44;92.47
73651;BME280;61944;52.538;6.108;2023-06-24T04:20:33;102272.28;;;18.31;95.04
73651;BME280;61944;52.538;6.108;2023-06-24T04:22:59;102265.81;;;18.38;93.32
73651;BME280;61944;52.538;6.108;2023-06-24T04:25:25;102268.69;;;18.41;92.29
73651;BME280;61944;52.538;6.108;2023-06-24T04:27:51;102275.97;;;18.42;94.22
73651;BME280;61944;52.538;6.108;2023-06-24T04:30:16;102265.84;;;18.41;91.63
73651;BME280;61944;52.538;6.108;2023-06-24T04:32:41;102269.47;;;18.38;94.98
73651;BME280;61944;52.538;6.108;2023-06-24T04:35:07;102271.91;;;18.40;92.43
73651;BME280;61944;52.538;6.108;2023-06-24T04:37:32;102277.22;;;18.52;93.03
73651;BME280;61944;52.538;6.108;2023-06-24T04:39:58;102274.00;;;18.54;93.20
73651;BME280;61944;52.538;6.108;2023-06-24T04:42:24;102279.69;;;18.54;92.98
73651;BME280;61944;52.538;6.108;2023-06-24T04:44:49;102281.66;;;18.46;94.01
73651;BME280;61944;52.538;6.108;2023-06-24T04:47:17;102286.53;;;18.53;91.37
73651;BME280;61944;52.538;6.108;2023-06-24T04:49:42;102289.84;;;18.62;93.80
73651;BME280;61944;52.538;6.108;2023-06-24T04:52:08;102291.06;;;18.64;91.11
73651;BME280;61944;52.538;6.108;2023-06-24T04:54:35;102285.41;;;18.68;91.94
73651;BME280;61944;52.538;6.108;2023-06-24T04:57:00;102293.06;;;18.60;92.54
73651;BME280;61944;52.538;6.108;2023-06-24T04:59:26;102291.09;;;18.75;92.52
73651;BME280;61944;52.538;6.108;2023-06-24T05:01:51;102300.00;;;18.77;92.07
73651;BME280;61944;52.538;6.108;2023-06-24T05:04:16;102294.78;;;18.79;91.53
73651;BME280;61944;52.538;6.108;2023-06-24T05:06:42;102299.66;;;18.86;90.15
73651;BME280;61944;52.538;6.108;2023-06-24T05:09:08;102296.41;;;18.84;92.32
73651;BME280;61944;52.538;6.108;2023-06-24T05:11:35;102301.22;;;18.76;92.79
73651;BME280;61944;52.538;6.108;2023-06-24T05:14:01;102295.97;;;18.78;99.43
73651;BME280;61944;52.538;6.108;2023-06-24T05:16:26;102304.53;;;18.85;98.11
73651;BME280;61944;52.538;6.108;2023-06-24T05:18:51;102290.69;;;18.73;97.51
73651;BME280;61944;52.538;6.108;2023-06-24T05:21:17;102298.00;;;18.74;99.63
73651;BME280;61944;52.538;6.108;2023-06-24T05:23:42;102292.69;;;18.76;98.32
73651;BME280;61944;52.538;6.108;2023-06-24T05:26:07;102298.44;;;18.83;98.20
73651;BME280;61944;52.538;6.108;2023-06-24T05:28:33;102298.03;;;18.88;97.41
73651;BME280;61944;52.538;6.108;2023-06-24T05:30:59;102294.81;;;19.01;95.19
73651;BME280;61944;52.538;6.108;2023-06-24T05:33:24;102297.66;;;19.01;95.04
73651;BME280;61944;52.538;6.108;2023-06-24T05:35:49;102296.47;;;19.02;94.65
73651;BME280;61944;52.538;6.108;2023-06-24T05:38:16;102288.34;;;19.11;89.53
73651;BME280;61944;52.538;6.108;2023-06-24T05:40:41;102287.16;;;19.12;88.91
73651;BME280;61944;52.538;6.108;2023-06-24T05:43:06;102288.78;;;19.20;91.31
73651;BME280;61944;52.538;6.108;2023-06-24T05:45:32;102284.72;;;19.21;90.24
73651;BME280;61944;52.538;6.108;2023-06-24T05:47:57;102295.66;;;19.26;90.24
73651;BME280;61944;52.538;6.108;2023-06-24T05:50:22;102298.13;;;19.32;90.82
73651;BME280;61944;52.538;6.108;2023-06-24T05:52:48;102293.25;;;19.32;89.96
73651;BME280;61944;52.538;6.108;2023-06-24T05:55:13;102295.69;;;19.41;89.94
73651;BME280;61944;52.538;6.108;2023-06-24T05:57:41;102292.06;;;19.44;86.98
73651;BME280;61944;52.538;6.108;2023-06-24T06:00:07;102285.53;;;19.47;88.66
73651;BME280;61944;52.538;6.108;2023-06-24T06:02:32;102296.50;;;19.59;88.60
73651;BME280;61944;52.538;6.108;2023-06-24T06:04:58;102286.34;;;19.65;86.57
73651;BME280;61944;52.538;6.108;2023-06-24T06:07:23;102290.00;;;19.69;86.85
73651;BME280;61944;52.538;6.108;2023-06-24T06:09:48;102289.22;;;19.80;87.12
73651;BME280;61944;52.538;6.108;2023-06-24T06:12:14;102284.31;;;19.91;85.52
73651;BME280;61944;52.538;6.108;2023-06-24T06:14:39;102281.88;;;19.89;85.36
73651;BME280;61944;52.538;6.108;2023-06-24T06:17:05;102275.38;;;19.85;84.83
73651;BME280;61944;52.538;6.108;2023-06-24T06:19:30;102284.28;;;20.05;85.33
73651;BME280;61944;52.538;6.108;2023-06-24T06:21:55;102281.84;;;20.07;83.52
73651;BME280;61944;52.538;6.108;2023-06-24T06:24:21;102294.00;;;20.22;84.06
73651;BME280;61944;52.538;6.108;2023-06-24T06:26:46;102285.06;;;20.17;82.12
73651;BME280;61944;52.538;6.108;2023-06-24T06:29:12;102293.94;;;20.33;82.93
73651;BME280;61944;52.538;6.108;2023-06-24T06:31:37;102306.88;;;20.48;82.00
73651;BME280;61944;52.538;6.108;2023-06-24T06:34:03;102306.06;;;20.51;80.79
73651;BME280;61944;52.538;6.108;2023-06-24T06:36:28;102299.63;;;20.33;80.95
73651;BME280;61944;52.538;6.108;2023-06-24T06:38:54;102306.06;;;20.51;79.03
73651;BME280;61944;52.538;6.108;2023-06-24T06:41:19;102301.63;;;20.43;77.65
73651;BME280;61944;52.538;6.108;2023-06-24T06:43:50;102298.75;;;20.50;76.55
73651;BME280;61944;52.538;6.108;2023-06-24T06:46:15;102303.16;;;20.66;76.19
73651;BME280;61944;52.538;6.108;2023-06-24T06:48:41;102303.50;;;20.82;76.02
73651;BME280;61944;52.538;6.108;2023-06-24T06:51:06;102303.50;;;20.82;74.42
73651;BME280;61944;52.538;6.108;2023-06-24T06:53:31;102303.03;;;20.95;73.33
73651;BME280;61944;52.538;6.108;2023-06-24T06:55:57;102309.06;;;21.04;72.15
73651;BME280;61944;52.538;6.108;2023-06-24T06:58:24;102303.50;;;20.86;73.49
73651;BME280;61944;52.538;6.108;2023-06-24T07:00:49;102301.84;;;20.85;73.24
73651;BME280;61944;52.538;6.108;2023-06-24T07:03:15;102307.53;;;20.88;71.45
73651;BME280;61944;52.538;6.108;2023-06-24T07:05:40;102313.16;;;21.03;73.35
73651;BME280;61944;52.538;6.108;2023-06-24T07:08:06;102312.75;;;21.01;73.98
73651;BME280;61944;52.538;6.108;2023-06-24T07:10:31;102322.41;;;21.18;73.07
73651;BME280;61944;52.538;6.108;2023-06-24T07:12:56;102316.25;;;21.26;75.07
73651;BME280;61944;52.538;6.108;2023-06-24T07:15:24;102312.81;;;21.53;73.67
73651;BME280;61944;52.538;6.108;2023-06-24T07:17:50;102315.66;;;21.53;77.94
73651;BME280;61944;52.538;6.108;2023-06-24T07:20:15;102315.59;;;21.60;73.44
73651;BME280;61944;52.538;6.108;2023-06-24T07:22:41;102313.41;;;21.79;72.90
73651;BME280;61944;52.538;6.108;2023-06-24T07:25:06;102311.97;;;22.01;73.26
73651;BME280;61944;52.538;6.108;2023-06-24T07:27:32;102314.63;;;22.19;73.14
73651;BME280;61944;52.538;6.108;2023-06-24T07:29:57;102307.47;;;22.04;69.45
73651;BME280;61944;52.538;6.108;2023-06-24T07:32:22;102318.38;;;22.09;70.62
73651;BME280;61944;52.538;6.108;2023-06-24T07:34:48;102308.88;;;21.85;71.78
73651;BME280;61944;52.538;6.108;2023-06-24T07:37:13;102308.09;;;21.81;67.74
73651;BME280;61944;52.538;6.108;2023-06-24T07:39:38;102309.25;;;21.87;68.96
73651;BME280;61944;52.538;6.108;2023-06-24T07:42:04;102316.66;;;21.81;70.44
73651;BME280;61944;52.538;6.108;2023-06-24T07:44:29;102309.41;;;21.69;70.81
73651;BME280;61944;52.538;6.108;2023-06-24T07:46:55;102306.84;;;21.82;70.93
73651;BME280;61944;52.538;6.108;2023-06-24T07:49:20;102320.34;;;22.16;68.88
73651;BME280;61944;52.538;6.108;2023-06-24T07:51:46;102311.50;;;22.06;68.96
73651;BME280;61944;52.538;6.108;2023-06-24T07:54:11;102305.03;;;21.99;69.26
73651;BME280;61944;52.538;6.108;2023-06-24T07:56:37;102305.66;;;22.21;66.95
73651;BME280;61944;52.538;6.108;2023-06-24T07:59:02;102301.63;;;22.15;68.98
73651;BME280;61944;52.538;6.108;2023-06-24T08:01:28;102305.03;;;22.40;69.18
73651;BME280;61944;52.538;6.108;2023-06-24T08:03:53;102300.63;;;22.32;67.21
73651;BME280;61944;52.538;6.108;2023-06-24T08:06:19;102304.63;;;22.42;66.79
73651;BME280;61944;52.538;6.108;2023-06-24T08:08:45;102301.09;;;22.61;65.73
73651;BME280;61944;52.538;6.108;2023-06-24T08:11:12;102310.38;;;22.69;60.67
73651;BME280;61944;52.538;6.108;2023-06-24T08:13:38;102304.63;;;23.00;60.62
73651;BME280;61944;52.538;6.108;2023-06-24T08:16:03;102296.66;;;23.18;58.92
73651;BME280;61944;52.538;6.108;2023-06-24T08:18:29;102302.56;;;23.31;57.70
73651;BME280;61944;52.538;6.108;2023-06-24T08:20:54;102303.69;;;23.37;55.73
73651;BME280;61944;52.538;6.108;2023-06-24T08:23:19;102307.13;;;23.52;54.65
73651;BME280;61944;52.538;6.108;2023-06-24T08:25:45;102306.13;;;23.39;56.09
73651;BME280;61944;52.538;6.108;2023-06-24T08:28:10;102295.75;;;23.48;54.81
73651;BME280;61944;52.538;6.108;2023-06-24T08:30:36;102293.56;;;23.32;56.90
73651;BME280;61944;52.538;6.108;2023-06-24T08:33:01;102297.31;;;23.53;54.15
73651;BME280;61944;52.538;6.108;2023-06-24T08:35:26;102295.81;;;23.45;54.37
73651;BME280;61944;52.538;6.108;2023-06-24T08:37:52;102293.19;;;23.54;53.61
73651;BME280;61944;52.538;6.108;2023-06-24T08:40:17;102301.09;;;23.70;58.47
73651;BME280;61944;52.538;6.108;2023-06-24T08:42:43;102299.63;;;23.62;54.79
73651;BME280;61944;52.538;6.108;2023-06-24T08:45:09;102305.13;;;23.72;53.53
73651;BME280;61944;52.538;6.108;2023-06-24T08:47:35;102303.69;;;24.08;52.21
73651;BME280;61944;52.538;6.108;2023-06-24T08:50:05;102301.00;;;24.21;52.70
73651;BME280;61944;52.538;6.108;2023-06-24T08:52:36;102297.50;;;24.33;52.17
73651;BME280;61944;52.538;6.108;2023-06-24T08:55:02;102298.16;;;24.61;53.57
73651;BME280;61944;52.538;6.108;2023-06-24T08:57:29;102288.19;;;24.49;53.25
73651;BME280;61944;52.538;6.108;2023-06-24T08:59:55;102289.41;;;24.48;54.79
73651;BME280;61944;52.538;6.108;2023-06-24T09:02:20;102298.66;;;24.75;53.13
73651;BME280;61944;52.538;6.108;2023-06-24T09:04:45;102297.63;;;24.66;52.70
73651;BME280;61944;52.538;6.108;2023-06-24T09:07:11;102302.78;;;24.54;56.35
73651;BME280;61944;52.538;6.108;2023-06-24T09:09:46;102297.06;;;24.54;55.67
73651;BME280;61944;52.538;6.108;2023-06-24T09:12:14;102295.00;;;24.91;53.28
73651;BME280;61944;52.538;6.108;2023-06-24T09:14:39;102294.34;;;24.67;58.93
73651;BME280;61944;52.538;6.108;2023-06-24T09:17:06;102307.16;;;24.79;53.12
73651;BME280;61944;52.538;6.108;2023-06-24T09:19:34;102294.75;;;24.66;55.00
73651;BME280;61944;52.538;6.108;2023-06-24T09:22:06;102289.56;;;24.61;64.07
73651;BME280;61944;52.538;6.108;2023-06-24T09:24:36;102297.50;;;24.73;54.49
73651;BME280;61944;52.538;6.108;2023-06-24T09:27:03;102296.22;;;24.74;55.71
73651;BME280;61944;52.538;6.108;2023-06-24T09:29:35;102298.19;;;24.77;55.15
73651;BME280;61944;52.538;6.108;2023-06-24T09:32:04;102295.84;;;24.72;56.69
73651;BME280;61944;52.538;6.108;2023-06-24T09:34:30;102287.94;;;24.60;57.10
73651;BME280;61944;52.538;6.108;2023-06-24T09:36:57;102271.94;;;24.62;61.25
73651;BME280;61944;52.538;6.108;2023-06-24T09:39:24;102279.16;;;24.50;62.47
73651;BME280;61944;52.538;6.108;2023-06-24T09:41:57;102280.25;;;24.57;59.80
73651;BME280;61944;52.538;6.108;2023-06-24T09:44:23;102283.91;;;24.57;65.34
73651;BME280;61944;52.538;6.108;2023-06-24T09:46:48;102286.38;;;24.75;57.61
73651;BME280;61944;52.538;6.108;2023-06-24T09:49:14;102282.19;;;24.80;57.71
73651;BME280;61944;52.538;6.108;2023-06-24T09:51:43;102279.59;;;25.22;58.39
73651;BME280;61944;52.538;6.108;2023-06-24T09:54:09;102282.00;;;25.72;56.86
73651;BME280;61944;52.538;6.108;2023-06-24T09:56:35;102277.50;;;25.71;56.58
73651;BME280;61944;52.538;6.108;2023-06-24T09:59:05;102279.50;;;25.42;59.14
73651;BME280;61944;52.538;6.108;2023-06-24T10:01:37;102275.19;;;25.66;57.51
73651;BME280;61944;52.538;6.108;2023-06-24T10:04:04;102273.56;;;25.65;58.86
73651;BME280;61944;52.538;6.108;2023-06-24T10:06:32;102269.53;;;25.79;55.83
73651;BME280;61944;52.538;6.108;2023-06-24T10:08:58;102271.81;;;25.84;57.80
73651;BME280;61944;52.538;6.108;2023-06-24T10:11:24;102269.16;;;26.23;56.00
73651;BME280;61944;52.538;6.108;2023-06-24T10:13:50;102272.03;;;25.77;58.62
73651;BME280;61944;52.538;6.108;2023-06-24T10:16:16;102276.06;;;25.80;56.91
73651;BME280;61944;52.538;6.108;2023-06-24T10:18:43;102272.47;;;25.92;56.40
73651;BME280;61944;52.538;6.108;2023-06-24T10:21:10;102261.63;;;25.83;57.60
73651;BME280;61944;52.538;6.108;2023-06-24T10:23:57;102263.06;;;26.21;55.35
73651;BME280;61944;52.538;6.108;2023-06-24T10:26:28;102268.00;;;26.33;55.40
73651;BME280;61944;52.538;6.108;2023-06-24T10:34:28;102261.94;;;26.31;54.33
73651;BME280;61944;52.538;6.108;2023-06-24T10:37:02;102253.97;;;27.03;53.50
73651;BME280;61944;52.538;6.108;2023-06-24T10:44:58;102250.16;;;26.54;53.13
73651;BME280;61944;52.538;6.108;2023-06-24T10:47:26;102252.56;;;26.56;54.10
73651;BME280;61944;52.538;6.108;2023-06-24T10:49:52;102253.03;;;26.54;51.95
73651;BME280;61944;52.538;6.108;2023-06-24T10:52:22;102257.88;;;27.09;51.54
73651;BME280;61944;52.538;6.108;2023-06-24T10:54:48;102246.06;;;27.07;51.21
73651;BME280;61944;52.538;6.108;2023-06-24T10:57:14;102257.53;;;27.07;51.41
73651;BME280;61944;52.538;6.108;2023-06-24T10:59:46;102256.31;;;26.95;52.41
73651;BME280;61944;52.538;6.108;2023-06-24T11:02:16;102258.59;;;26.87;51.46
73651;BME280;61944;52.538;6.108;2023-06-24T11:04:50;102256.41;;;27.17;53.18
73651;BME280;61944;52.538;6.108;2023-06-24T11:07:18;102244.88;;;27.43;53.23
73651;BME280;61944;52.538;6.108;2023-06-24T11:09:51;102250.81;;;27.61;51.90
73651;BME280;61944;52.538;6.108;2023-06-24T11:12:17;102246.72;;;27.49;51.00
73651;BME280;61944;52.538;6.108;2023-06-24T11:14:43;102235.03;;;27.66;49.73
73651;BME280;61944;52.538;6.108;2023-06-24T11:17:08;102240.38;;;27.54;51.70
73651;BME280;61944;52.538;6.108;2023-06-24T11:19:34;102232.63;;;27.64;52.21
73651;BME280;61944;52.538;6.108;2023-06-24T11:22:04;102235.50;;;28.21;53.54
73651;BME280;61944;52.538;6.108;2023-06-24T11:24:30;102234.78;;;27.86;53.02
73651;BME280;61944;52.538;6.108;2023-06-24T11:26:55;102240.41;;;27.76;50.85
73651;BME280;61944;52.538;6.108;2023-06-24T11:29:24;102240.84;;;28.10;50.08
73651;BME280;61944;52.538;6.108;2023-06-24T11:31:53;102237.50;;;28.11;48.69
73651;BME280;61944;52.538;6.108;2023-06-24T11:34:18;102228.16;;;27.63;51.36
73651;BME280;61944;52.538;6.108;2023-06-24T11:36:44;102231.88;;;27.86;49.39
73651;BME280;61944;52.538;6.108;2023-06-24T11:39:24;102240.66;;;28.04;49.68
73651;BME280;61944;52.538;6.108;2023-06-24T11:41:50;102231.03;;;27.63;46.95
73651;BME280;61944;52.538;6.108;2023-06-24T11:44:23;102231.34;;;27.30;49.54
73651;BME280;61944;52.538;6.108;2023-06-24T11:46:49;102230.94;;;27.89;49.31
73651;BME280;61944;52.538;6.108;2023-06-24T11:49:15;102224.19;;;28.27;48.96
73651;BME280;61944;52.538;6.108;2023-06-24T11:51:49;102231.22;;;28.26;46.35
73651;BME280;61944;52.538;6.108;2023-06-24T11:54:19;102229.88;;;28.71;47.82
73651;BME280;61944;52.538;6.108;2023-06-24T11:56:50;102219.28;;;28.14;47.76
73651;BME280;61944;52.538;6.108;2023-06-24T11:59:20;102226.53;;;28.19;48.06
73651;BME280;61944;52.538;6.108;2023-06-24T12:01:55;102222.28;;;28.33;46.82
73651;BME280;61944;52.538;6.108;2023-06-24T12:04:27;102223.00;;;28.68;46.97
73651;BME280;61944;52.538;6.108;2023-06-24T12:06:52;102220.44;;;28.70;46.63
73651;BME280;61944;52.538;6.108;2023-06-24T12:09:18;102218.09;;;28.87;47.53
73651;BME280;61944;52.538;6.108;2023-06-24T12:11:43;102211.44;;;29.09;47.13
73651;BME280;61944;52.538;6.108;2023-06-24T12:14:09;102226.13;;;29.33;47.89
73651;BME280;61944;52.538;6.108;2023-06-24T12:16:34;102221.09;;;29.15;46.56
73651;BME280;61944;52.538;6.108;2023-06-24T12:19:00;102220.34;;;28.52;50.89
73651;BME280;61944;52.538;6.108;2023-06-24T12:21:25;102222.25;;;28.24;50.01
73651;BME280;61944;52.538;6.108;2023-06-24T12:23:51;102206.22;;;27.91;51.07
73651;BME280;61944;52.538;6.108;2023-06-24T12:26:16;102205.94;;;27.98;52.06
73651;BME280;61944;52.538;6.108;2023-06-24T12:28:41;102211.97;;;27.91;52.56
73651;BME280;61944;52.538;6.108;2023-06-24T12:31:07;102212.16;;;27.97;53.38
73651;BME280;61944;52.538;6.108;2023-06-24T12:33:32;102209.22;;;27.88;55.49
73651;BME280;61944;52.538;6.108;2023-06-24T12:35:58;102208.69;;;28.02;57.72
73651;BME280;61944;52.538;6.108;2023-06-24T12:38:24;102212.63;;;27.61;57.71
73651;BME280;61944;52.538;6.108;2023-06-24T12:40:49;102213.53;;;27.70;57.69
73651;BME280;61944;52.538;6.108;2023-06-24T12:43:15;102214.38;;;27.80;55.76
73651;BME280;61944;52.538;6.108;2023-06-24T12:45:41;102208.63;;;27.80;57.22
73651;BME280;61944;52.538;6.108;2023-06-24T12:48:13;102215.50;;;27.83;56.23
73651;BME280;61944;52.538;6.108;2023-06-24T12:50:38;102210.22;;;27.94;56.93
73651;BME280;61944;52.538;6.108;2023-06-24T12:53:04;102204.56;;;27.68;57.11
73651;BME280;61944;52.538;6.108;2023-06-24T12:55:30;102211.28;;;27.52;55.95
73651;BME280;61944;52.538;6.108;2023-06-24T12:57:55;102205.28;;;27.82;57.01
73651;BME280;61944;52.538;6.108;2023-06-24T13:00:22;102206.66;;;27.55;56.88
73651;BME280;61944;52.538;6.108;2023-06-24T13:02:48;102200.91;;;27.55;56.85
73651;BME280;61944;52.538;6.108;2023-06-24T13:05:14;102197.97;;;27.68;54.82